Time;durP1;ratioP1;P1;durP2;ratioP2;P2;SDS_P1;SDS_P2;PMS_P1;PMS_P2;Temp;Humidity;BMP_temperature;BMP_pressure;BME280_temperature;BME280_humidity;BME280_pressure;Samples;Min_cycle;Max_cycle;Signal;HPM_P1;HPM_P2
2021/12/11 00:00:23;;;;;;;60.10;37.53;;;4.20;80.70;;;;;;5012095;28;20030;-58
2021/12/11 00:03:07;;;;;;;51.92;32.70;;;4.20;80.70;;;;;;5012074;28;20026;-60
2021/12/11 00:05:34;;;;;;;52.97;35.08;;;4.20;80.90;;;;;;5012412;28;20092;-61
2021/12/11 00:08:01;;;;;;;52.47;33.47;;;4.30;80.80;;;;;;5016935;28;20091;-59
2021/12/11 00:10:36;;;;;;;48.30;30.80;;;4.30;80.50;;;;;;5019600;28;20058;-61
2021/12/11 00:13:07;;;;;;;48.58;32.38;;;4.30;80.40;;;;;;5020675;28;20057;-63
2021/12/11 00:15:37;;;;;;;50.35;30.48;;;4.30;80.70;;;;;;5014508;28;20026;-60
2021/12/11 00:18:15;;;;;;;51.63;32.55;;;4.30;80.00;;;;;;5036075;28;20056;-65
2021/12/11 00:20:49;;;;;;;46.10;27.80;;;4.30;80.10;;;;;;5042938;28;20073;-66
2021/12/11 00:23:25;;;;;;;46.70;28.73;;;4.30;80.30;;;;;;5036134;28;20029;-59
2021/12/11 00:25:51;;;;;;;47.95;29.20;;;4.20;79.60;;;;;;5041451;28;20041;-56
2021/12/11 00:28:16;;;;;;;49.95;32.63;;;4.20;79.70;;;;;;5035001;28;20029;-63
2021/12/11 00:30:45;;;;;;;48.35;30.10;;;4.20;79.90;;;;;;5023455;28;20034;-60
2021/12/11 00:33:14;;;;;;;48.72;31.08;;;4.20;79.90;;;;;;5016767;28;20029;-55
2021/12/11 00:35:40;;;;;;;44.42;28.52;;;4.30;79.90;;;;;;5023202;28;20048;-61
2021/12/11 00:38:12;;;;;;;41.92;26.08;;;4.30;79.70;;;;;;5055190;28;20071;-64
2021/12/11 00:40:40;;;;;;;45.17;27.80;;;4.30;79.20;;;;;;5015767;28;20125;-65
2021/12/11 00:43:12;;;;;;;47.78;28.50;;;4.30;79.10;;;;;;5054575;28;20029;-60
2021/12/11 00:45:40;;;;;;;48.97;28.85;;;4.30;79.10;;;;;;5055412;28;20117;-55
2021/12/11 00:48:22;;;;;;;49.30;30.55;;;4.30;79.00;;;;;;5055063;28;20056;-62
2021/12/11 00:50:54;;;;;;;45.85;28.95;;;4.30;79.40;;;;;;5035985;28;20084;-61
2021/12/11 00:53:29;;;;;;;50.38;30.65;;;4.30;79.50;;;;;;5045366;28;20025;-61
2021/12/11 00:56:01;;;;;;;46.22;27.98;;;4.30;79.40;;;;;;5023806;28;20025;-62
2021/12/11 00:58:34;;;;;;;54.67;32.83;;;4.30;79.20;;;;;;5024188;28;20040;-60
2021/12/11 01:01:06;;;;;;;48.88;30.58;;;4.20;79.30;;;;;;5050354;28;20040;-62
2021/12/11 01:03:40;;;;;;;50.67;30.65;;;4.20;79.70;;;;;;5050328;28;20029;-59
2021/12/11 01:06:20;;;;;;;52.35;31.30;;;4.30;79.60;;;;;;5035181;28;20025;-60
2021/12/11 01:08:57;;;;;;;50.28;30.27;;;4.30;79.70;;;;;;5040486;28;20087;-63
2021/12/11 01:11:29;;;;;;;48.08;30.55;;;4.30;79.80;;;;;;5043630;28;20037;-62
2021/12/11 01:14:19;;;;;;;51.47;31.05;;;4.40;79.60;;;;;;5038638;28;20057;-60
2021/12/11 01:16:57;;;;;;;48.97;30.30;;;4.50;79.30;;;;;;5041298;28;20481;-65
2021/12/11 01:19:24;;;;;;;47.35;30.08;;;4.40;79.00;;;;;;5017484;28;20064;-60
2021/12/11 01:21:58;;;;;;;51.55;30.08;;;4.40;79.00;;;;;;5034131;28;20039;-61
2021/12/11 01:26:57;;;;;;;49.85;31.48;;;4.40;79.20;;;;;;5052926;28;20029;-61
2021/12/11 01:29:24;;;;;;;48.50;29.52;;;4.40;79.10;;;;;;5053702;28;20029;-51
2021/12/11 01:31:52;;;;;;;52.13;31.88;;;4.40;79.20;;;;;;5040396;28;20029;-60
2021/12/11 01:34:18;;;;;;;51.95;31.98;;;4.40;79.30;;;;;;5032504;28;20021;-63
2021/12/11 01:36:45;;;;;;;54.30;30.45;;;4.40;79.10;;;;;;5015445;28;20056;-66
2021/12/11 01:39:15;;;;;;;53.67;31.02;;;4.40;79.10;;;;;;5016278;28;20025;-59
2021/12/11 01:41:43;;;;;;;54.20;32.55;;;4.30;79.40;;;;;;5034214;28;20033;-70
2021/12/11 01:44:15;;;;;;;55.33;31.13;;;4.30;79.50;;;;;;5033678;28;20048;-64
2021/12/11 01:46:42;;;;;;;57.97;32.90;;;4.30;79.50;;;;;;5016357;28;20069;-70
2021/12/11 01:49:15;;;;;;;60.28;34.25;;;4.30;79.60;;;;;;5033064;28;20029;-64
2021/12/11 01:51:49;;;;;;;53.75;31.08;;;4.20;80.00;;;;;;5034164;28;20029;-67
2021/12/11 01:54:26;;;;;;;56.17;32.83;;;4.10;79.90;;;;;;5034219;28;20114;-64
2021/12/11 01:57:01;;;;;;;56.22;31.85;;;4.20;80.90;;;;;;5033570;28;20040;-62
2021/12/11 01:59:32;;;;;;;58.22;32.53;;;4.20;80.40;;;;;;5034216;28;20029;-66
2021/12/11 02:02:12;;;;;;;58.10;32.70;;;4.20;80.30;;;;;;5016082;28;20377;-64
2021/12/11 02:04:42;;;;;;;57.63;33.60;;;4.20;80.20;;;;;;5017446;28;20030;-66
2021/12/11 02:07:19;;;;;;;60.50;33.83;;;4.20;80.30;;;;;;5015274;28;20529;-67
2021/12/11 02:09:51;;;;;;;58.63;34.03;;;4.30;80.10;;;;;;5033734;28;20038;-63
2021/12/11 02:12:22;;;;;;;58.42;33.65;;;4.20;80.00;;;;;;5033712;28;20112;-66
2021/12/11 02:14:52;;;;;;;62.05;33.97;;;4.20;80.00;;;;;;5015846;28;20037;-63
2021/12/11 02:17:26;;;;;;;60.63;33.42;;;4.20;80.20;;;;;;5015453;28;20022;-61
2021/12/11 02:19:56;;;;;;;59.47;34.60;;;4.20;80.40;;;;;;5032956;28;20065;-66
2021/12/11 02:22:26;;;;;;;59.08;35.22;;;4.20;80.30;;;;;;5033690;28;20120;-64
2021/12/11 02:25:02;;;;;;;62.90;34.30;;;4.20;80.50;;;;;;5032729;28;20049;-62
2021/12/11 02:27:34;;;;;;;62.08;34.42;;;4.20;80.50;;;;;;5033460;28;20057;-73
2021/12/11 02:30:15;;;;;;;59.45;33.13;;;4.20;80.40;;;;;;5015152;28;20029;-66
2021/12/11 02:33:03;;;;;;;62.22;34.60;;;4.20;80.60;;;;;;5015853;28;20025;-70
2021/12/11 02:35:58;;;;;;;57.30;33.35;;;4.20;80.50;;;;;;5016212;28;20385;-71
2021/12/11 02:38:31;;;;;;;60.22;32.50;;;4.20;80.30;;;;;;5015529;28;20034;-61
2021/12/11 02:41:16;;;;;;;60.30;32.78;;;4.20;80.30;;;;;;5032514;28;20044;-61
2021/12/11 02:43:50;;;;;;;61.47;32.75;;;4.20;80.30;;;;;;5033321;28;20481;-66
2021/12/11 02:46:25;;;;;;;65.57;34.25;;;4.20;80.30;;;;;;5032950;28;20458;-65
2021/12/11 02:49:02;;;;;;;59.80;33.05;;;4.20;80.50;;;;;;5032804;28;20022;-63
2021/12/11 02:51:39;;;;;;;61.70;34.42;;;4.20;80.40;;;;;;5030720;28;20116;-63
2021/12/11 02:54:37;;;;;;;65.72;34.53;;;4.30;80.40;;;;;;5032275;28;20029;-66
2021/12/11 02:57:08;;;;;;;65.55;33.20;;;4.30;80.20;;;;;;5031535;28;20038;-64
2021/12/11 02:59:41;;;;;;;60.90;33.38;;;4.30;80.00;;;;;;5032757;28;20064;-67
2021/12/11 03:02:12;;;;;;;60.28;33.90;;;4.30;79.90;;;;;;5014749;28;20021;-66
2021/12/11 03:04:48;;;;;;;58.10;32.20;;;4.30;80.00;;;;;;5015344;28;20057;-64
2021/12/11 03:07:16;;;;;;;64.57;33.78;;;4.30;80.10;;;;;;5032541;28;20017;-67
2021/12/11 03:09:53;;;;;;;58.97;32.00;;;4.30;80.10;;;;;;5033068;28;20038;-64
2021/12/11 03:12:21;;;;;;;63.75;33.67;;;4.30;80.20;;;;;;5032228;28;20030;-67
2021/12/11 03:14:48;;;;;;;59.55;32.78;;;4.30;80.10;;;;;;5032344;28;20026;-70
2021/12/11 03:17:16;;;;;;;60.20;32.42;;;4.30;80.10;;;;;;5031875;28;20029;-66
2021/12/11 03:19:44;;;;;;;61.40;33.45;;;4.30;80.00;;;;;;5032383;28;20497;-65
2021/12/11 03:22:17;;;;;;;57.30;31.55;;;4.30;80.10;;;;;;5031489;28;20029;-65
2021/12/11 03:24:44;;;;;;;60.13;33.63;;;4.30;80.20;;;;;;5015051;28;20034;-71
2021/12/11 03:27:10;;;;;;;61.55;33.80;;;4.30;80.20;;;;;;5031777;28;20038;-64
2021/12/11 03:29:36;;;;;;;62.83;34.58;;;4.30;80.20;;;;;;5014945;28;20022;-66
2021/12/11 03:32:06;;;;;;;62.42;32.58;;;4.30;80.10;;;;;;5013935;28;20033;-66
2021/12/11 03:34:32;;;;;;;63.30;34.50;;;4.30;80.30;;;;;;5031808;28;20482;-66
2021/12/11 03:37:00;;;;;;;61.33;34.67;;;4.20;80.10;;;;;;5032035;28;20021;-62
2021/12/11 03:39:30;;;;;;;61.58;32.95;;;4.30;80.40;;;;;;5032863;28;20029;-73
2021/12/11 03:41:59;;;;;;;62.22;34.88;;;4.40;80.40;;;;;;5013916;28;20466;-66
2021/12/11 03:44:32;;;;;;;63.85;34.17;;;4.40;80.00;;;;;;5032390;28;20071;-65
2021/12/11 03:47:00;;;;;;;61.03;34.03;;;4.40;79.90;;;;;;5014242;28;20032;-64
2021/12/11 03:49:26;;;;;;;62.10;33.97;;;4.40;79.80;;;;;;5014129;28;20493;-67
2021/12/11 03:51:53;;;;;;;66.88;34.42;;;4.40;79.80;;;;;;5032129;28;20139;-63
2021/12/11 03:54:26;;;;;;;66.25;35.03;;;4.40;79.90;;;;;;5031858;28;20083;-67
2021/12/11 03:56:52;;;;;;;64.95;34.65;;;4.40;79.80;;;;;;5032447;28;20026;-68
2021/12/11 03:59:18;;;;;;;65.95;34.13;;;4.40;79.80;;;;;;5031503;28;20029;-64
2021/12/11 04:01:48;;;;;;;66.50;35.15;;;4.40;79.70;;;;;;5014512;28;20428;-66
2021/12/11 04:04:21;;;;;;;68.43;35.70;;;4.30;79.90;;;;;;5031652;28;20075;-67
2021/12/11 04:06:48;;;;;;;64.25;34.97;;;4.40;80.10;;;;;;5031602;28;20025;-67
2021/12/11 04:09:17;;;;;;;65.25;34.47;;;4.40;80.00;;;;;;5013480;28;20489;-67
2021/12/11 04:11:43;;;;;;;68.45;36.40;;;4.40;79.80;;;;;;5031620;28;20030;-63
2021/12/11 04:14:14;;;;;;;66.22;34.22;;;4.40;79.90;;;;;;5031924;28;20053;-68
2021/12/11 04:16:41;;;;;;;59.97;33.38;;;4.40;79.80;;;;;;5031987;28;20040;-64
2021/12/11 04:19:08;;;;;;;64.80;34.78;;;4.30;79.70;;;;;;5030840;28;20037;-67
2021/12/11 04:21:35;;;;;;;69.07;35.92;;;4.30;79.90;;;;;;5031704;28;20060;-64
2021/12/11 04:24:03;;;;;;;68.03;34.05;;;4.30;80.10;;;;;;5030921;28;20026;-70
2021/12/11 04:26:29;;;;;;;66.30;32.33;;;4.30;80.30;;;;;;5031851;28;20125;-62
2021/12/11 04:28:55;;;;;;;70.55;36.97;;;4.30;79.80;;;;;;5031774;28;20061;-61
2021/12/11 04:31:27;;;;;;;67.68;35.28;;;4.30;80.10;;;;;;5031207;28;20385;-64
2021/12/11 04:33:55;;;;;;;64.47;33.00;;;4.30;80.00;;;;;;5014181;28;20087;-63
2021/12/11 04:36:29;;;;;;;62.90;33.22;;;4.30;79.80;;;;;;5031508;28;20045;-66
2021/12/11 04:38:56;;;;;;;65.95;35.08;;;4.30;80.00;;;;;;5031937;28;20068;-64
2021/12/11 04:41:31;;;;;;;65.90;33.40;;;4.30;80.20;;;;;;5031170;28;20137;-65
2021/12/11 04:44:00;;;;;;;65.90;35.05;;;4.30;80.10;;;;;;5031055;28;20026;-62
2021/12/11 04:46:26;;;;;;;69.30;34.72;;;4.30;80.10;;;;;;5013480;28;20025;-63
2021/12/11 04:51:34;;;;;;;69.75;35.58;;;4.30;79.90;;;;;;5031091;28;20036;-66
2021/12/11 05:10:15;;;;;;;57.40;32.53;;;4.40;79.70;;;;;;5033930;28;20029;-66
2021/12/11 05:12:44;;;;;;;60.45;32.75;;;4.40;79.50;;;;;;5035032;28;20041;-65
2021/12/11 05:15:18;;;;;;;62.78;34.17;;;4.50;79.30;;;;;;5016046;28;20025;-64
2021/12/11 05:17:45;;;;;;;59.35;32.25;;;4.50;79.20;;;;;;5016852;28;20559;-67
2021/12/11 05:20:14;;;;;;;64.82;36.95;;;4.50;79.20;;;;;;5033955;28;20076;-64
2021/12/11 05:22:40;;;;;;;58.17;32.28;;;4.50;79.00;;;;;;5016653;28;20029;-64
2021/12/11 05:25:09;;;;;;;58.55;32.92;;;4.60;78.70;;;;;;5034291;28;20029;-65
2021/12/11 05:27:35;;;;;;;58.92;32.25;;;4.60;78.70;;;;;;5017081;28;20026;-63
2021/12/11 05:30:05;;;;;;;57.13;31.90;;;4.50;78.50;;;;;;5016383;28;20032;-66
2021/12/11 05:32:31;;;;;;;54.00;30.13;;;4.50;78.60;;;;;;5016758;28;20120;-65
2021/12/11 05:34:58;;;;;;;56.85;32.47;;;4.50;78.30;;;;;;5034534;28;20057;-67
2021/12/11 05:37:24;;;;;;;54.55;31.45;;;4.50;78.20;;;;;;5033715;28;20182;-66
2021/12/11 05:39:50;;;;;;;56.65;31.65;;;4.40;78.40;;;;;;5033988;28;20045;-68
2021/12/11 05:42:16;;;;;;;56.35;32.53;;;4.50;78.70;;;;;;5033399;28;20053;-71
2021/12/11 05:44:43;;;;;;;55.00;30.98;;;4.50;78.70;;;;;;5033991;28;20038;-62
2021/12/11 05:47:10;;;;;;;57.72;30.88;;;4.60;78.40;;;;;;5016001;28;20168;-63
2021/12/11 05:49:37;;;;;;;59.40;31.15;;;4.50;78.20;;;;;;5033946;28;20121;-63
2021/12/11 05:52:06;;;;;;;53.35;32.03;;;4.60;78.30;;;;;;5016312;28;20029;-64
2021/12/11 05:54:33;;;;;;;51.28;29.95;;;4.60;78.20;;;;;;5034199;28;20080;-65
2021/12/11 05:57:04;;;;;;;51.25;29.08;;;4.60;78.00;;;;;;5016607;28;20080;-65
2021/12/11 05:59:31;;;;;;;52.38;30.23;;;4.70;78.00;;;;;;5034382;28;20076;-68
2021/12/11 06:02:02;;;;;;;51.65;30.10;;;4.70;77.70;;;;;;5015959;28;20030;-64
2021/12/11 06:04:32;;;;;;;50.88;30.23;;;4.80;77.70;;;;;;5033567;28;20026;-71
2021/12/11 06:06:59;;;;;;;56.88;33.22;;;4.80;77.40;;;;;;5016121;28;20420;-65
2021/12/11 06:09:26;;;;;;;52.53;31.58;;;4.80;77.30;;;;;;5015739;28;20030;-66
2021/12/11 06:11:57;;;;;;;54.40;31.67;;;4.80;77.10;;;;;;5015962;28;20030;-70
2021/12/11 06:14:23;;;;;;;52.75;31.20;;;4.90;76.80;;;;;;5032299;28;20068;-64
2021/12/11 06:16:52;;;;;;;54.25;31.48;;;5.00;76.90;;;;;;5032578;28;20104;-65
2021/12/11 06:19:21;;;;;;;55.75;31.48;;;5.00;76.50;;;;;;5032540;28;20355;-64
2021/12/11 06:21:48;;;;;;;52.25;30.55;;;5.00;76.50;;;;;;5032652;28;20044;-68
2021/12/11 06:24:14;;;;;;;56.65;31.50;;;5.00;76.10;;;;;;5032525;28;20025;-61
2021/12/11 06:26:40;;;;;;;56.72;32.28;;;4.90;76.00;;;;;;5032543;28;20042;-67
2021/12/11 06:29:06;;;;;;;51.50;31.17;;;5.00;76.00;;;;;;5032342;28;20022;-65
2021/12/11 06:31:32;;;;;;;56.10;32.30;;;5.00;76.60;;;;;;5032323;28;20035;-64
2021/12/11 06:33:58;;;;;;;55.60;31.85;;;5.00;75.80;;;;;;5032656;28;20029;-65
2021/12/11 06:36:26;;;;;;;57.78;32.60;;;5.00;76.00;;;;;;5014104;28;20117;-63
2021/12/11 06:38:57;;;;;;;56.33;30.88;;;4.90;76.00;;;;;;5014196;28;20053;-66
2021/12/11 06:41:29;;;;;;;56.83;31.85;;;4.90;76.00;;;;;;5031480;28;20045;-63
2021/12/11 06:43:55;;;;;;;53.65;31.90;;;5.00;76.10;;;;;;5032681;28;20041;-69
2021/12/11 06:46:21;;;;;;;56.88;32.20;;;4.90;76.00;;;;;;5014103;28;20378;-65
2021/12/11 06:48:47;;;;;;;61.75;33.70;;;5.00;76.30;;;;;;5032409;28;20112;-65
2021/12/11 06:51:13;;;;;;;58.67;35.03;;;5.00;76.30;;;;;;5013668;28;20080;-64
2021/12/11 06:53:47;;;;;;;58.35;33.30;;;5.00;76.00;;;;;;5013801;28;20469;-65
2021/12/11 06:56:14;;;;;;;;;;;5.00;76.10;;;;;;5014460;28;20120;-63
2021/12/11 06:58:40;;;;;;;59.33;34.42;;;5.10;76.30;;;;;;5031652;28;19905;-68
2021/12/11 07:01:07;;;;;;;61.72;36.05;;;5.10;76.10;;;;;;5014592;28;20444;-62
2021/12/11 07:03:34;;;;;;;65.30;35.65;;;5.10;76.30;;;;;;5031017;28;20041;-68
2021/12/11 07:06:00;;;;;;;66.05;36.92;;;5.00;76.30;;;;;;5032307;28;20036;-61
2021/12/11 07:08:28;;;;;;;63.90;35.25;;;5.00;76.30;;;;;;5013259;28;20048;-65
2021/12/11 07:10:54;;;;;;;64.13;37.45;;;4.90;76.60;;;;;;5031789;28;20026;-63
2021/12/11 07:13:20;;;;;;;65.78;35.85;;;4.90;76.80;;;;;;5013311;28;20049;-63
2021/12/11 07:15:46;;;;;;;65.40;35.60;;;4.90;76.90;;;;;;5014678;28;20452;-63
2021/12/11 07:18:12;;;;;;;63.92;35.28;;;5.00;77.10;;;;;;5031245;28;20116;-62
2021/12/11 07:20:38;;;;;;;63.42;36.65;;;5.00;77.20;;;;;;5031630;28;20120;-65
2021/12/11 07:23:04;;;;;;;61.95;35.28;;;5.10;77.00;;;;;;5014211;28;20025;-61
2021/12/11 07:25:47;;;;;;;62.22;34.83;;;5.10;77.10;;;;;;5013180;28;20078;-64
2021/12/11 07:28:13;;;;;;;71.47;37.25;;;5.20;76.90;;;;;;5013832;28;20116;-62
2021/12/11 07:30:42;;;;;;;61.60;35.80;;;5.10;76.70;;;;;;5014085;28;20116;-71
2021/12/11 07:33:09;;;;;;;64.47;34.03;;;5.20;76.90;;;;;;5013315;28;20155;-62
2021/12/11 07:35:37;;;;;;;67.05;37.33;;;5.20;76.70;;;;;;5031252;28;20068;-61
2021/12/11 07:38:04;;;;;;;67.95;36.25;;;5.10;77.60;;;;;;5013595;28;20108;-68
2021/12/11 07:40:35;;;;;;;61.78;35.03;;;5.20;77.00;;;;;;5012118;28;20099;-66
2021/12/11 07:43:01;;;;;;;63.58;34.58;;;5.10;77.00;;;;;;5013630;28;20052;-62
2021/12/11 07:45:28;;;;;;;65.00;34.70;;;5.00;77.40;;;;;;5030751;28;20038;-64
2021/12/11 07:47:54;;;;;;;64.82;34.97;;;4.90;77.80;;;;;;5014164;28;20048;-64
2021/12/11 07:50:21;;;;;;;64.93;37.38;;;4.80;78.10;;;;;;5012751;28;20478;-63
2021/12/11 07:52:47;;;;;;;69.85;34.40;;;4.80;78.60;;;;;;5031287;28;20056;-64
2021/12/11 07:55:15;;;;;;;68.32;35.78;;;4.80;78.50;;;;;;5030073;28;20061;-61
2021/12/11 07:57:42;;;;;;;68.75;34.88;;;4.90;78.70;;;;;;5013723;28;20022;-70
2021/12/11 08:00:10;;;;;;;60.35;33.33;;;5.00;78.50;;;;;;5031234;28;20119;-67
2021/12/11 08:02:36;;;;;;;71.97;37.35;;;5.00;77.80;;;;;;5030208;28;20108;-67
2021/12/11 08:05:04;;;;;;;64.63;34.92;;;5.00;77.70;;;;;;5030832;28;20124;-66
2021/12/11 08:07:29;;;;;;;66.82;35.15;;;5.00;77.70;;;;;;5030499;28;20423;-62
2021/12/11 08:09:55;;;;;;;67.43;36.08;;;5.00;77.80;;;;;;5012408;28;20037;-64
2021/12/11 08:12:21;;;;;;;70.70;36.05;;;5.10;77.60;;;;;;5012825;28;20104;-68
2021/12/11 08:14:49;;;;;;;70.57;35.20;;;5.00;77.30;;;;;;5013030;28;20025;-64
2021/12/11 08:17:16;;;;;;;71.40;36.40;;;5.00;77.60;;;;;;5030919;28;20048;-63
2021/12/11 08:19:42;;;;;;;70.40;35.85;;;5.00;78.50;;;;;;5012979;28;20482;-68
2021/12/11 08:22:30;;;;;;;66.43;34.47;;;5.10;77.80;;;;;;5030973;28;20033;-68
2021/12/11 08:24:56;;;;;;;67.35;35.38;;;5.20;77.80;;;;;;5030695;28;20072;-64
2021/12/11 08:27:23;;;;;;;68.65;35.53;;;5.30;77.30;;;;;;5030303;28;20085;-62
2021/12/11 08:29:51;;;;;;;65.40;35.40;;;5.30;76.80;;;;;;5031202;28;20034;-64
2021/12/11 08:32:17;;;;;;;74.03;35.83;;;5.20;76.80;;;;;;5012396;28;20079;-63
2021/12/11 08:34:43;;;;;;;68.75;36.70;;;5.20;76.90;;;;;;5031361;28;20113;-66
2021/12/11 08:37:13;;;;;;;67.88;34.08;;;5.10;76.90;;;;;;5030650;28;20038;-68
2021/12/11 08:39:40;;;;;;;68.60;36.00;;;5.10;77.10;;;;;;5030118;28;20112;-72
2021/12/11 08:42:09;;;;;;;75.38;37.08;;;5.20;77.20;;;;;;5030735;28;20033;-64
2021/12/11 08:44:38;;;;;;;72.60;37.78;;;5.20;76.80;;;;;;5014710;28;20056;-69
2021/12/11 08:47:10;;;;;;;73.68;37.78;;;5.00;76.80;;;;;;5017091;28;20072;-70
2021/12/11 08:49:41;;;;;;;73.40;37.13;;;4.90;77.20;;;;;;5016493;28;20017;-65
2021/12/11 08:52:31;;;;;;;69.85;36.92;;;4.90;77.80;;;;;;5017112;28;20063;-62
2021/12/11 08:54:58;;;;;;;74.10;35.47;;;5.00;77.80;;;;;;5016526;28;20029;-68
2021/12/11 08:57:28;;;;;;;73.07;36.90;;;5.00;77.70;;;;;;5033553;28;20048;-65
2021/12/11 08:59:58;;;;;;;72.47;36.50;;;5.00;77.40;;;;;;5016246;28;20041;-64
2021/12/11 09:02:48;;;;;;;72.30;37.47;;;5.10;77.70;;;;;;5015411;28;20105;-63
2021/12/11 09:05:33;;;;;;;70.15;37.00;;;5.20;77.60;;;;;;5016705;28;20034;-67
2021/12/11 09:08:12;;;;;;;70.70;35.00;;;5.30;77.10;;;;;;5034461;28;20121;-66
2021/12/11 09:10:56;;;;;;;72.53;37.75;;;5.20;76.10;;;;;;5015672;28;20037;-64
2021/12/11 09:13:35;;;;;;;69.85;34.45;;;5.30;76.60;;;;;;5033290;28;20085;-62
2021/12/11 09:16:23;;;;;;;70.82;36.90;;;5.40;76.50;;;;;;5016517;28;20032;-68
2021/12/11 09:19:05;;;;;;;70.50;36.28;;;5.40;75.90;;;;;;5033698;28;20047;-65
2021/12/11 09:21:38;;;;;;;67.95;36.35;;;5.50;76.00;;;;;;5033548;28;20083;-70
2021/12/11 09:24:22;;;;;;;68.55;35.92;;;5.60;75.70;;;;;;5015766;28;20064;-67
2021/12/11 09:27:00;;;;;;;73.72;36.45;;;5.60;74.90;;;;;;5016572;28;20033;-65
2021/12/11 09:29:31;;;;;;;71.75;37.28;;;5.60;75.20;;;;;;5015082;28;20029;-68
2021/12/11 09:32:14;;;;;;;74.45;38.85;;;5.70;75.10;;;;;;5033592;28;20025;-65
2021/12/11 09:34:54;;;;;;;65.25;35.13;;;5.70;74.90;;;;;;5015801;28;20021;-63
2021/12/11 09:37:21;;;;;;;72.20;38.72;;;5.80;74.70;;;;;;5013100;28;20041;-62
2021/12/11 09:39:51;;;;;;;68.50;35.90;;;5.80;74.40;;;;;;5015006;28;20041;-62
2021/12/11 09:42:17;;;;;;;77.13;39.88;;;5.80;74.30;;;;;;5015708;28;20026;-60
2021/12/11 09:44:51;;;;;;;76.07;35.92;;;5.80;74.20;;;;;;5033309;28;20108;-68
2021/12/11 09:47:22;;;;;;;68.72;36.45;;;5.80;73.70;;;;;;5033733;28;20029;-64
2021/12/11 09:49:58;;;;;;;69.25;36.30;;;5.70;73.90;;;;;;5015712;28;20120;-64
2021/12/11 09:52:27;;;;;;;74.72;38.30;;;5.70;74.40;;;;;;5032503;28;20022;-66
2021/12/11 09:55:04;;;;;;;73.53;38.38;;;5.80;74.40;;;;;;5014851;28;20045;-63
2021/12/11 09:57:36;;;;;;;74.00;37.55;;;5.90;74.30;;;;;;5031027;28;20389;-62
2021/12/11 10:00:11;;;;;;;81.25;38.33;;;5.90;73.60;;;;;;5013588;28;20037;-58
2021/12/11 10:02:38;;;;;;;73.28;38.25;;;6.00;73.30;;;;;;5034671;28;20417;-63
2021/12/11 10:05:30;;;;;;;70.38;36.65;;;6.00;73.30;;;;;;5031741;28;20037;-62
2021/12/11 10:08:30;;;;;;;70.03;37.15;;;6.00;73.30;;;;;;5034173;28;20025;-65
2021/12/11 10:11:27;;;;;;;70.40;35.67;;;6.00;73.30;;;;;;5015488;28;20068;-64
2021/12/11 10:13:55;;;;;;;79.70;39.17;;;6.20;72.90;;;;;;5014288;28;20049;-67
2021/12/11 10:16:25;;;;;;;83.13;41.35;;;6.20;72.30;;;;;;5033242;28;20469;-62
2021/12/11 10:18:53;;;;;;;77.07;39.05;;;6.20;72.60;;;;;;5033369;28;20461;-66
2021/12/11 10:21:23;;;;;;;70.05;35.80;;;6.30;72.40;;;;;;5015363;28;20064;-70
2021/12/11 10:23:53;;;;;;;68.00;37.20;;;6.30;72.50;;;;;;5033381;28;20071;-67
2021/12/11 10:26:22;;;;;;;75.30;39.35;;;6.40;72.30;;;;;;5015327;28;20455;-62
2021/12/11 10:28:51;;;;;;;71.90;37.60;;;6.40;71.60;;;;;;5015456;28;20030;-66
2021/12/11 10:31:36;;;;;;;70.07;36.78;;;6.40;72.10;;;;;;5015766;28;20041;-64
2021/12/11 10:34:10;;;;;;;79.40;40.03;;;6.40;71.90;;;;;;5033407;28;20117;-67
2021/12/11 10:36:45;;;;;;;75.95;39.53;;;6.30;71.90;;;;;;5032294;28;20026;-67
2021/12/11 10:39:14;;;;;;;76.80;39.50;;;6.10;71.80;;;;;;5033123;28;20033;-66
2021/12/11 10:41:40;;;;;;;73.32;37.63;;;6.10;72.60;;;;;;5014906;28;20037;-64
2021/12/11 10:44:14;;;;;;;83.95;42.67;;;6.10;72.60;;;;;;5015576;28;20433;-69
2021/12/11 10:46:55;;;;;;;75.28;39.63;;;6.00;72.50;;;;;;5014546;28;20473;-65
2021/12/11 10:49:22;;;;;;;73.70;37.67;;;6.10;72.60;;;;;;5032557;28;20086;-65
2021/12/11 10:52:03;;;;;;;72.72;38.13;;;6.00;72.40;;;;;;5015330;28;20041;-74
2021/12/11 10:54:29;;;;;;;74.72;38.15;;;5.90;72.60;;;;;;5032470;28;20076;-66
2021/12/11 10:56:56;;;;;;;75.07;40.05;;;5.80;73.20;;;;;;5032400;28;20022;-65
2021/12/11 10:59:28;;;;;;;74.50;37.80;;;5.90;73.50;;;;;;5015223;28;20030;-66
2021/12/11 11:01:56;;;;;;;69.93;38.33;;;6.10;73.50;;;;;;5032098;28;20052;-69
2021/12/11 11:04:26;;;;;;;67.95;37.50;;;6.20;72.60;;;;;;5032409;28;20466;-69
2021/12/11 11:06:52;;;;;;;72.75;37.97;;;6.20;72.90;;;;;;5014597;28;20029;-75
2021/12/11 11:09:20;;;;;;;73.20;37.95;;;6.30;72.90;;;;;;5014280;28;20053;-67
2021/12/11 11:11:48;;;;;;;74.35;38.58;;;6.20;71.50;;;;;;5031781;28;20028;-66
2021/12/11 11:14:15;;;;;;;73.03;39.53;;;6.10;72.20;;;;;;5014537;28;20049;-70
2021/12/11 11:16:44;;;;;;;71.78;38.58;;;6.00;72.50;;;;;;5013950;28;20438;-65
2021/12/11 11:19:10;;;;;;;69.10;38.30;;;6.20;72.90;;;;;;5032095;28;20064;-70
2021/12/11 11:21:42;;;;;;;67.90;37.53;;;6.20;72.30;;;;;;5012832;28;20124;-66
2021/12/11 11:24:10;;;;;;;63.42;37.70;;;6.20;72.30;;;;;;5031587;28;20022;-75
2021/12/11 11:26:40;;;;;;;69.28;37.35;;;6.30;72.50;;;;;;5013914;28;20128;-71
2021/12/11 11:29:09;;;;;;;66.45;38.17;;;6.30;71.70;;;;;;5014440;28;20483;-72
2021/12/11 11:31:40;;;;;;;69.18;36.58;;;6.30;72.10;;;;;;5013775;28;20036;-67
2021/12/11 11:34:10;;;;;;;71.18;39.65;;;6.40;72.60;;;;;;5014455;28;20592;-65
2021/12/11 11:36:36;;;;;;;64.35;35.88;;;6.60;71.70;;;;;;5031247;28;20079;-64
2021/12/11 11:39:09;;;;;;;72.50;39.53;;;6.70;71.10;;;;;;5032030;28;20101;-76
2021/12/11 11:41:42;;;;;;;69.07;37.72;;;6.80;71.00;;;;;;5031438;28;20033;-72
2021/12/11 11:44:09;;;;;;;63.13;35.03;;;6.80;70.60;;;;;;5031591;28;20025;-67
2021/12/11 11:46:37;;;;;;;63.38;36.65;;;6.80;70.50;;;;;;5012945;28;20037;-66
2021/12/11 11:49:06;;;;;;;66.75;36.70;;;6.80;70.40;;;;;;5032002;28;20056;-68
2021/12/11 11:51:38;;;;;;;62.60;35.03;;;6.70;70.20;;;;;;5013961;28;20087;-72
2021/12/11 11:54:06;;;;;;;69.37;37.87;;;6.70;70.60;;;;;;5014325;28;20029;-67
2021/12/11 11:56:37;;;;;;;62.22;35.70;;;6.80;70.10;;;;;;5028844;28;20037;-67
2021/12/11 11:59:05;;;;;;;59.65;35.28;;;6.80;70.00;;;;;;5029778;28;20033;-67
2021/12/11 12:02:01;;;;;;;59.35;34.55;;;6.90;70.40;;;;;;5030432;28;20034;-70
2021/12/11 12:04:29;;;;;;;65.32;36.35;;;7.10;70.20;;;;;;5027249;28;20045;-70
2021/12/11 12:06:59;;;;;;;64.05;36.35;;;7.20;69.00;;;;;;5031208;28;20036;-72
2021/12/11 12:09:28;;;;;;;69.40;38.70;;;7.30;69.40;;;;;;5030128;28;20057;-63
2021/12/11 12:11:55;;;;;;;68.10;36.85;;;7.30;68.80;;;;;;5030294;28;20480;-74
2021/12/11 12:14:24;;;;;;;63.25;35.78;;;7.40;69.00;;;;;;5013771;28;20073;-67
2021/12/11 12:16:51;;;;;;;65.32;37.28;;;7.50;68.00;;;;;;5012018;28;20025;-74
2021/12/11 12:19:21;;;;;;;64.25;38.28;;;7.40;67.50;;;;;;5032167;28;20104;-64
2021/12/11 12:21:50;;;;;;;61.08;36.55;;;7.30;67.50;;;;;;5000378;28;20252;-66
2021/12/11 12:24:20;;;;;;;63.42;37.03;;;7.20;68.20;;;;;;5034292;28;20029;-65
2021/12/11 12:26:45;;;;;;;61.15;37.10;;;7.30;68.20;;;;;;5033791;28;20311;-65
2021/12/11 12:29:14;;;;;;;55.88;35.25;;;7.30;68.40;;;;;;5016649;28;20032;-68
2021/12/11 12:32:03;;;;;;;62.55;34.58;;;7.20;67.50;;;;;;5016495;28;20034;-70
2021/12/11 12:34:48;;;;;;;62.25;34.13;;;7.10;67.90;;;;;;5014768;28;20037;-68
2021/12/11 12:37:14;;;;;;;53.42;31.98;;;7.00;68.00;;;;;;5034690;28;20025;-70
2021/12/11 12:39:43;;;;;;;59.53;35.53;;;7.00;68.80;;;;;;5015917;28;20377;-68
2021/12/11 12:42:38;;;;;;;62.72;38.30;;;7.10;68.80;;;;;;5035613;28;20029;-69
2021/12/11 12:45:07;;;;;;;58.55;34.33;;;7.10;68.30;;;;;;5016991;28;20034;-72
2021/12/11 12:47:37;;;;;;;63.67;36.60;;;7.00;68.30;;;;;;5015690;28;20033;-69
2021/12/11 12:50:27;;;;;;;58.78;35.03;;;6.90;68.40;;;;;;5016109;28;20040;-66
2021/12/11 12:52:53;;;;;;;59.22;34.53;;;6.80;68.80;;;;;;5033160;28;20132;-65
2021/12/11 12:55:24;;;;;;;57.95;33.20;;;6.80;69.00;;;;;;5014643;28;20036;-69
2021/12/11 12:57:53;;;;;;;59.72;35.58;;;6.90;69.20;;;;;;5033756;28;20080;-67
2021/12/11 13:00:21;;;;;;;55.97;33.25;;;6.90;69.20;;;;;;5033287;28;20083;-65
2021/12/11 13:02:51;;;;;;;58.75;35.17;;;7.00;69.30;;;;;;5015667;28;20549;-66
2021/12/11 13:05:24;;;;;;;60.70;36.35;;;7.10;69.20;;;;;;5033449;28;20084;-70
2021/12/11 13:07:57;;;;;;;61.10;34.92;;;7.10;69.00;;;;;;5015891;28;20026;-66
2021/12/11 13:10:51;;;;;;;64.32;35.95;;;7.00;69.10;;;;;;5035071;28;20495;-69
2021/12/11 13:13:18;;;;;;;;;;;7.00;69.50;;;;;;5011779;28;20183;-73
2021/12/11 13:15:57;;;;;;;57.85;34.45;;;7.00;69.10;;;;;;5033166;28;19959;-66
2021/12/11 13:18:29;;;;;;;59.85;35.33;;;7.00;69.00;;;;;;5033984;28;20025;-71